createdAt,value
2023-03-29T00:01:00.185Z,95973.09
2023-03-29T00:03:28.211Z,95977.47
2023-03-29T00:06:03.003Z,95932.16
2023-03-29T00:08:32.162Z,95967.59
2023-03-29T00:11:01.481Z,95979.06
2023-03-29T00:13:29.021Z,95972.34
2023-03-29T00:15:57.199Z,95969.34
2023-03-29T00:18:24.766Z,95964.97
2023-03-29T00:20:55.799Z,95953.69
2023-03-29T00:23:24.968Z,95948.53
2023-03-29T00:25:54.401Z,95948.53
2023-03-29T00:28:23.598Z,95936.47
2023-03-29T00:30:51.425Z,95934.66
2023-03-29T00:33:20.330Z,95923.59
2023-03-29T00:35:49.295Z,95913.06
2023-03-29T00:38:17.210Z,95889.94
2023-03-29T00:40:47.084Z,95893.44
2023-03-29T00:43:15.838Z,95906.09
2023-03-29T00:45:44.602Z,95912.25
2023-03-29T00:48:15.735Z,95913.59
2023-03-29T00:50:48.411Z,95919.16
2023-03-29T00:53:21.323Z,95917.19
2023-03-29T00:55:52.519Z,95911.44
2023-03-29T00:58:26.281Z,95906.25
2023-03-29T01:01:02.129Z,95927.66
2023-03-29T01:03:34.851Z,95917.13
2023-03-29T01:06:08.563Z,95914.16
2023-03-29T01:08:41.830Z,95885.09
2023-03-29T01:11:15.029Z,95917.94
2023-03-29T01:13:46.818Z,95904.88
2023-03-29T01:16:18.908Z,95901.13
2023-03-29T01:18:47.206Z,95890.59
2023-03-29T01:21:21.405Z,95889.19
2023-03-29T01:24:06.605Z,95889.19
2023-03-29T01:26:48.620Z,95884.63
2023-03-29T01:29:25.535Z,95879.41
2023-03-29T01:31:58.946Z,95876.28
2023-03-29T01:34:32.585Z,95877.06
2023-03-29T01:37:05.139Z,95879.63
2023-03-29T01:39:34.880Z,95875.06
2023-03-29T01:42:13.461Z,95858.38
2023-03-29T01:44:49.529Z,95865.53
2023-03-29T01:47:24.898Z,95886.94
2023-03-29T01:50:05.523Z,95886.53
2023-03-29T01:52:36.909Z,95868.31
2023-03-29T01:55:10.518Z,95857.44
2023-03-29T01:57:43.638Z,95885.31
2023-03-29T02:00:16.462Z,95845.63
2023-03-29T02:02:46.940Z,95858.78
2023-03-29T02:05:16.016Z,95821.19
2023-03-29T02:07:45.155Z,95841.50
2023-03-29T02:10:14.065Z,95857.69
2023-03-29T02:12:41.939Z,95861.84
2023-03-29T02:15:15.630Z,95838.16
2023-03-29T02:17:44.936Z,95830.16
2023-03-29T02:20:17.491Z,95815.16
2023-03-29T02:22:52.687Z,95807.06
2023-03-29T02:25:22.406Z,95849.69
2023-03-29T02:27:50.462Z,95861.22
2023-03-29T02:30:20.972Z,95855.84
2023-03-29T02:32:53.288Z,95843.16
2023-03-29T02:35:28.199Z,95855.47
2023-03-29T02:38:00.031Z,95843.41
2023-03-29T02:40:28.125Z,95840.22
2023-03-29T02:42:58.491Z,95837.09
2023-03-29T02:45:29.244Z,95822.47
2023-03-29T02:48:01.269Z,95836.75
2023-03-29T02:50:35.299Z,95832.34
2023-03-29T02:53:06.795Z,95831.34
2023-03-29T02:55:35.446Z,95816.81
2023-03-29T02:58:08.016Z,95823.53
2023-03-29T03:00:39.397Z,95799.75
2023-03-29T03:03:08.802Z,95803.72
2023-03-29T03:05:37.307Z,95807.22
2023-03-29T03:08:05.225Z,95814.31
2023-03-29T03:10:33.669Z,95826.19
2023-03-29T03:13:01.377Z,95775.13
2023-03-29T03:15:29.073Z,95827.50
2023-03-29T03:17:57.997Z,95822.50
2023-03-29T03:20:26.435Z,95816.34
2023-03-29T03:22:53.945Z,95821.88
2023-03-29T03:25:22.045Z,95825.44
2023-03-29T03:27:50.427Z,95811.03
2023-03-29T03:30:18.796Z,95816.50
2023-03-29T03:32:46.277Z,95814.13
2023-03-29T03:35:15.245Z,95808.97
2023-03-29T03:37:42.825Z,95813.94
2023-03-29T03:40:12.349Z,95799.38
2023-03-29T03:42:40.953Z,95793.13
2023-03-29T03:45:10.509Z,95809.84
2023-03-29T03:47:38.277Z,95807.69
2023-03-29T03:50:07.285Z,95811.66
2023-03-29T03:52:36.197Z,95808.66
2023-03-29T03:55:03.722Z,95812.81
2023-03-29T03:57:32.968Z,95814.28
2023-03-29T04:00:00.496Z,95805.44
2023-03-29T04:02:28.117Z,95807.59
2023-03-29T04:04:55.766Z,95802.59
2023-03-29T04:07:25.253Z,95804.75
2023-03-29T04:09:54.080Z,95812.41
2023-03-29T04:12:21.725Z,95776.63
2023-03-29T04:14:49.393Z,95802.06
2023-03-29T04:17:16.981Z,95797.91
2023-03-29T04:19:44.575Z,95796.72
2023-03-29T04:22:12.067Z,95806.22
2023-03-29T04:24:39.525Z,95786.16
2023-03-29T04:27:09.227Z,95812.91
2023-03-29T04:29:36.953Z,95807.53
2023-03-29T04:32:04.956Z,95795.41
2023-03-29T04:34:32.660Z,95766.28
2023-03-29T04:37:00.863Z,95799.78
2023-03-29T04:39:33.760Z,95796.03
2023-03-29T04:42:02.866Z,95787.97
2023-03-29T04:44:33.321Z,95795.13
2023-03-29T04:47:00.917Z,95791.16
2023-03-29T04:49:28.901Z,95778.78
2023-03-29T04:51:57.072Z,95789.91
2023-03-29T04:54:24.640Z,95799.72
2023-03-29T04:56:52.473Z,95793.56
2023-03-29T04:59:20.150Z,95794.56
2023-03-29T05:01:49.050Z,95792.53
2023-03-29T05:04:18.257Z,95799.16
2023-03-29T05:06:45.758Z,95789.47
2023-03-29T05:09:13.201Z,95796.13
2023-03-29T05:11:40.755Z,95801.28
2023-03-29T05:14:09.175Z,95796.06
2023-03-29T05:16:38.102Z,95810.63
2023-03-29T05:19:07.644Z,95791.81
2023-03-29T05:21:35.204Z,95806.66
2023-03-29T05:24:03.096Z,95783.94
2023-03-29T05:26:30.845Z,95763.78
2023-03-29T05:28:58.495Z,95793.91
2023-03-29T05:31:26.394Z,95801.78
2023-03-29T05:33:53.998Z,95805.94
2023-03-29T05:36:23.283Z,95793.84
2023-03-29T05:38:50.796Z,95786.56
2023-03-29T05:41:18.758Z,95785.09
2023-03-29T05:43:46.666Z,95792.41
2023-03-29T05:46:14.169Z,95790.81
2023-03-29T05:52:09.821Z,95785.81
2023-03-29T05:54:37.336Z,95788.38
2023-03-29T05:57:04.855Z,95795.31
2023-03-29T05:59:32.599Z,95788.59
2023-03-29T06:02:03.021Z,95766.19
2023-03-29T06:04:30.742Z,95778.31
2023-03-29T06:07:00.298Z,95782.06
2023-03-29T06:09:29.341Z,95780.19
2023-03-29T06:11:57.448Z,95784.25
2023-03-29T06:14:24.910Z,95764.59
2023-03-29T06:16:53.296Z,95779.72
2023-03-29T06:19:20.881Z,95783.78
2023-03-29T06:21:48.324Z,95782.69
2023-03-29T06:24:16.193Z,95774.13
2023-03-29T06:26:45.183Z,95786.44
2023-03-29T06:29:12.797Z,95796.34
2023-03-29T06:31:40.781Z,95787.00
2023-03-29T06:34:08.714Z,95788.25
2023-03-29T06:36:36.442Z,95791.75
2023-03-29T06:39:08.432Z,95792.09
2023-03-29T06:41:36.068Z,95799.56
2023-03-29T06:44:05.084Z,95801.69
2023-03-29T06:46:35.254Z,95799.78
2023-03-29T06:49:03.227Z,95793.81
2023-03-29T06:51:31.246Z,95773.69
2023-03-29T06:53:58.896Z,95801.63
2023-03-29T06:56:26.671Z,95802.38
2023-03-29T06:58:54.370Z,95813.88
2023-03-29T07:01:23.920Z,95785.03
2023-03-29T07:03:52.999Z,95812.75
2023-03-29T07:06:23.852Z,95789.56
2023-03-29T07:08:55.250Z,95756.69
2023-03-29T07:11:23.280Z,95779.31
2023-03-29T07:13:51.278Z,95826.50
2023-03-29T07:16:19.333Z,95804.09
2023-03-29T07:18:48.691Z,95787.31
2023-03-29T07:21:16.649Z,95817.22
2023-03-29T07:23:44.885Z,95762.75
2023-03-29T07:26:16.126Z,95802.03
2023-03-29T07:28:56.683Z,95776.25
2023-03-29T07:31:24.482Z,95810.94
2023-03-29T07:33:53.756Z,95815.66
2023-03-29T07:36:21.647Z,95784.22
2023-03-29T07:38:50.025Z,95816.41
2023-03-29T07:41:18.114Z,95808.03
2023-03-29T07:43:46.719Z,95789.16
2023-03-29T07:46:14.526Z,95813.88
2023-03-29T07:48:42.338Z,95806.44
2023-03-29T07:51:11.939Z,95799.78
2023-03-29T07:53:39.969Z,95830.94
2023-03-29T07:56:08.907Z,95834.03
2023-03-29T07:58:37.692Z,95822.56
2023-03-29T08:01:06.248Z,95815.22
2023-03-29T08:03:34.536Z,95790.50
2023-03-29T08:06:02.912Z,95800.34
2023-03-29T08:08:31.854Z,95816.84
2023-03-29T08:10:59.633Z,95839.34
2023-03-29T08:13:28.196Z,95838.56
2023-03-29T08:15:56.001Z,95796.16
2023-03-29T08:18:23.459Z,95839.44
2023-03-29T08:20:51.647Z,95820.41
2023-03-29T08:23:19.312Z,95819.63
2023-03-29T08:25:48.398Z,95794.75
2023-03-29T08:28:15.980Z,95800.19
2023-03-29T08:30:43.494Z,95828.31
2023-03-29T08:33:11.064Z,95820.25
2023-03-29T08:35:38.619Z,95817.84
2023-03-29T08:38:06.132Z,95832.31
2023-03-29T08:40:33.936Z,95829.09
2023-03-29T08:43:26.963Z,95832.09
2023-03-29T08:46:04.066Z,95831.84
2023-03-29T08:48:35.347Z,95831.59
2023-03-29T08:51:08.574Z,95834.00
2023-03-29T08:53:44.127Z,95836.75
2023-03-29T08:56:15.879Z,95798.13
2023-03-29T08:58:46.581Z,95804.31
2023-03-29T09:01:14.513Z,95824.53
2023-03-29T09:03:46.185Z,95804.47
2023-03-29T09:06:14.309Z,95819.34
2023-03-29T09:08:45.620Z,95794.88
2023-03-29T09:11:32.899Z,95819.25
2023-03-29T09:14:20.370Z,95825.78
2023-03-29T09:16:58.596Z,95827.91
2023-03-29T09:19:33.401Z,95828.97
2023-03-29T09:22:06.670Z,95829.41
2023-03-29T09:24:47.658Z,95816.06
2023-03-29T09:27:21.090Z,95811.47
2023-03-29T09:29:59.320Z,95813.81
2023-03-29T09:32:32.991Z,95818.50
2023-03-29T09:35:07.886Z,95819.44
2023-03-29T09:37:39.302Z,95812.19
2023-03-29T09:40:13.421Z,95821.13
2023-03-29T09:42:42.222Z,95816.41
2023-03-29T09:45:11.920Z,95818.59
2023-03-29T09:47:44.665Z,95808.91
2023-03-29T09:50:29.503Z,95813.38
2023-03-29T09:52:58.521Z,95801.00
2023-03-29T09:55:29.457Z,95777.78
2023-03-29T09:58:01.241Z,95785.16
2023-03-29T10:00:30.074Z,95793.88
2023-03-29T10:02:59.981Z,95805.63
2023-03-29T10:05:31.869Z,95796.81
2023-03-29T10:08:02.191Z,95797.59
2023-03-29T10:10:32.879Z,95780.88
2023-03-29T10:13:02.598Z,95802.56
2023-03-29T10:15:31.939Z,95801.53
2023-03-29T10:18:03.167Z,95794.97
2023-03-29T10:20:30.947Z,95808.16
2023-03-29T10:23:02.579Z,95799.41
2023-03-29T10:25:32.977Z,95799.88
2023-03-29T10:28:06.790Z,95775.13
2023-03-29T10:30:37.820Z,95802.59
2023-03-29T10:33:07.723Z,95812.50
2023-03-29T10:35:40.573Z,95769.84
2023-03-29T10:38:14.746Z,95784.78
2023-03-29T10:40:45.491Z,95804.13
2023-03-29T10:43:15.744Z,95804.19
2023-03-29T10:45:45.279Z,95778.88
2023-03-29T10:48:14.953Z,95805.41
2023-03-29T10:50:43.085Z,95797.44
2023-03-29T10:53:17.514Z,95791.00
2023-03-29T10:55:54.804Z,95780.81
2023-03-29T10:58:32.537Z,95778.22
2023-03-29T11:01:02.051Z,95757.09
2023-03-29T11:03:44.773Z,95778.56
2023-03-29T11:06:20.959Z,95775.94
2023-03-29T11:08:55.282Z,95766.00
2023-03-29T11:11:43.944Z,95786.94
2023-03-29T11:14:23.063Z,95786.91
2023-03-29T11:17:06.035Z,95752.66
2023-03-29T11:19:49.649Z,95761.78
2023-03-29T11:22:24.106Z,95780.09
2023-03-29T11:25:04.849Z,95781.13
2023-03-29T11:27:38.488Z,95776.69
2023-03-29T11:30:10.069Z,95767.25
2023-03-29T11:32:49.074Z,95745.06
2023-03-29T11:35:42.587Z,95767.78
2023-03-29T11:38:20.138Z,95769.59
2023-03-29T11:40:56.526Z,95766.44
2023-03-29T11:43:28.309Z,95778.47
2023-03-29T11:46:01.946Z,95769.88
2023-03-29T11:48:36.942Z,95771.44
2023-03-29T11:51:12.107Z,95767.00
2023-03-29T11:53:47.363Z,95772.00
2023-03-29T11:56:21.162Z,95768.34
2023-03-29T11:58:58.476Z,95779.03
2023-03-29T12:01:32.611Z,95776.16
2023-03-29T12:04:16.115Z,95758.34
2023-03-29T12:06:52.378Z,95766.97
2023-03-29T12:09:28.774Z,95750.78
2023-03-29T12:12:04.349Z,95766.13
2023-03-29T12:14:47.968Z,95759.22
2023-03-29T12:17:20.503Z,95757.97
2023-03-29T12:19:56.544Z,95752.03
2023-03-29T12:22:24.420Z,95757.84
2023-03-29T12:24:55.107Z,95741.22
2023-03-29T12:27:27.962Z,95750.19
2023-03-29T12:30:23.401Z,95747.75
2023-03-29T12:33:21.390Z,95728.91
2023-03-29T12:36:02.547Z,95723.81
2023-03-29T12:38:31.610Z,95746.03
2023-03-29T12:41:01.924Z,95737.38
2023-03-29T12:43:33.281Z,95746.56
2023-03-29T12:46:08.163Z,95743.72
2023-03-29T12:48:39.756Z,95737.41
2023-03-29T12:51:14.758Z,95732.47
2023-03-29T12:53:45.938Z,95734.84
2023-03-29T12:56:16.931Z,95743.13
2023-03-29T12:58:53.756Z,95726.66
2023-03-29T13:01:28.567Z,95722.69
2023-03-29T13:04:16.739Z,95702.13
2023-03-29T13:07:03.853Z,95711.91
2023-03-29T13:09:35.687Z,95698.94
2023-03-29T13:12:14.417Z,95703.06
2023-03-29T13:14:44.879Z,95695.47
2023-03-29T13:17:23.659Z,95675.13
2023-03-29T13:20:04.346Z,95687.44
2023-03-29T13:22:44.005Z,95661.19
2023-03-29T13:25:28.279Z,95689.94
2023-03-29T13:28:04.251Z,95687.53
2023-03-29T13:30:47.250Z,95688.19
2023-03-29T13:33:45.622Z,95682.94
2023-03-29T13:36:22.423Z,95695.47
2023-03-29T13:38:54.717Z,95687.69
2023-03-29T13:41:34.289Z,95686.97
2023-03-29T13:44:02.450Z,95674.88
2023-03-29T13:46:38.799Z,95659.50
2023-03-29T13:49:15.344Z,95681.59
2023-03-29T13:51:49.082Z,95676.13
2023-03-29T13:54:27.721Z,95666.81
2023-03-29T13:57:06.671Z,95663.94
2023-03-29T13:59:41.156Z,95658.84
2023-03-29T14:02:16.832Z,95648.97
2023-03-29T14:04:48.457Z,95622.97
2023-03-29T14:07:16.319Z,95622.28
2023-03-29T14:09:49.696Z,95635.84
2023-03-29T14:12:20.815Z,95625.34
2023-03-29T14:14:58.906Z,95639.31
2023-03-29T14:17:28.030Z,95625.28
2023-03-29T14:19:59.187Z,95637.56
2023-03-29T14:22:31.505Z,95650.31
2023-03-29T14:25:04.606Z,95639.41
2023-03-29T14:27:33.442Z,95641.59
2023-03-29T14:30:01.133Z,95649.56
2023-03-29T14:32:30.942Z,95643.88
2023-03-29T14:34:59.053Z,95628.13
2023-03-29T14:37:28.625Z,95645.88
2023-03-29T14:39:56.369Z,95645.34
2023-03-29T14:42:29.072Z,95640.19
2023-03-29T14:45:03.891Z,95641.00
2023-03-29T14:47:33.534Z,95635.63
2023-03-29T14:50:02.631Z,95634.84
2023-03-29T14:52:31.363Z,95640.13
2023-03-29T14:55:01.786Z,95632.06
2023-03-29T14:57:36.339Z,95640.69
2023-03-29T15:00:17.681Z,95627.66
2023-03-29T15:02:51.140Z,95628.22
2023-03-29T15:05:37.703Z,95638.47
2023-03-29T15:08:08.677Z,95634.28
2023-03-29T15:10:38.703Z,95624.38
2023-03-29T15:13:09.352Z,95629.41
2023-03-29T15:15:38.879Z,95614.22
2023-03-29T15:18:08.740Z,95614.81
2023-03-29T15:20:39.522Z,95584.72
2023-03-29T15:23:19.897Z,95611.13
2023-03-29T15:25:51.852Z,95600.88
2023-03-29T15:28:28.101Z,95590.66
2023-03-29T15:31:07.820Z,95603.72
2023-03-29T15:33:37.372Z,95603.72
2023-03-29T15:36:06.907Z,95591.13
2023-03-29T15:38:43.985Z,95566.03
2023-03-29T15:41:13.366Z,95575.63
2023-03-29T15:43:42.548Z,95562.38
2023-03-29T15:46:12.394Z,95567.25
2023-03-29T15:48:39.877Z,95556.22
2023-03-29T15:51:07.573Z,95546.47
2023-03-29T15:53:36.533Z,95532.63
2023-03-29T15:56:07.960Z,95543.88
2023-03-29T15:58:36.383Z,95520.78
2023-03-29T16:01:13.017Z,95519.81
2023-03-29T16:03:41.566Z,95526.22
2023-03-29T16:06:12.255Z,95524.22
2023-03-29T16:08:41.316Z,95524.22
2023-03-29T16:11:09.334Z,95518.69
2023-03-29T16:13:36.898Z,95510.91
2023-03-29T16:16:07.080Z,95520.28
2023-03-29T16:18:35.680Z,95521.91
2023-03-29T16:21:03.478Z,95516.19
2023-03-29T16:23:31.007Z,95502.47
2023-03-29T16:25:59.293Z,95524.34
2023-03-29T16:28:26.902Z,95526.44
2023-03-29T16:30:54.590Z,95488.69
2023-03-29T16:33:23.660Z,95499.91
2023-03-29T16:35:51.657Z,95506.97
2023-03-29T16:38:19.941Z,95513.00
2023-03-29T16:40:48.556Z,95467.13
2023-03-29T16:43:17.062Z,95503.13
2023-03-29T16:45:44.780Z,95483.78
2023-03-29T16:48:13.726Z,95479.19
2023-03-29T16:50:42.686Z,95493.81
2023-03-29T16:53:10.930Z,95493.28
2023-03-29T16:55:39.391Z,95454.13
2023-03-29T16:58:07.260Z,95449.50
2023-03-29T17:00:35.210Z,95459.16
2023-03-29T17:03:02.890Z,95450.56
2023-03-29T17:05:30.572Z,95470.38
2023-03-29T17:07:59.427Z,95468.81
2023-03-29T17:10:26.857Z,95484.81
2023-03-29T17:12:54.314Z,95474.59
2023-03-29T17:15:24.672Z,95473.84
2023-03-29T17:17:52.168Z,95480.94
2023-03-29T17:20:21.861Z,95478.09
2023-03-29T17:22:52.012Z,95465.81
2023-03-29T17:25:20.829Z,95480.19
2023-03-29T17:27:48.321Z,95475.25
2023-03-29T17:30:16.478Z,95470.59
2023-03-29T17:32:45.481Z,95471.16
2023-03-29T17:35:13.610Z,95474.00
2023-03-29T17:37:41.794Z,95455.53
2023-03-29T17:40:12.406Z,95476.66
2023-03-29T17:42:41.289Z,95476.13
2023-03-29T17:45:10.708Z,95469.88
2023-03-29T17:47:38.720Z,95482.72
2023-03-29T17:50:08.081Z,95469.66
2023-03-29T17:52:35.743Z,95455.84
2023-03-29T17:55:03.666Z,95466.03
2023-03-29T18:00:10.661Z,95456.72
2023-03-29T18:02:38.405Z,95457.75
2023-03-29T18:05:06.661Z,95441.06
2023-03-29T18:07:34.503Z,95469.22
2023-03-29T18:10:02.680Z,95365.75
2023-03-29T18:12:31.065Z,95371.25
2023-03-29T18:14:58.788Z,95469.47
2023-03-29T18:17:28.104Z,95454.34
2023-03-29T18:19:55.677Z,95464.53
2023-03-29T18:22:23.958Z,95462.97
2023-03-29T18:24:51.560Z,95454.34
2023-03-29T18:27:19.723Z,95455.91
2023-03-29T18:29:47.379Z,95446.84
2023-03-29T18:32:15.201Z,95446.56
2023-03-29T18:34:45.592Z,95455.94
2023-03-29T18:37:15.054Z,95453.84
2023-03-29T18:39:47.062Z,95443.41
2023-03-29T18:42:14.740Z,95445.75
2023-03-29T18:44:42.365Z,95429.09
2023-03-29T18:47:09.999Z,95421.50
2023-03-29T18:49:37.691Z,95430.91
2023-03-29T18:52:06.652Z,95433.50
2023-03-29T18:54:35.269Z,95421.75
2023-03-29T18:57:02.923Z,95435.31
2023-03-29T18:59:37.051Z,95420.69
2023-03-29T19:02:07.182Z,95392.56
2023-03-29T19:04:34.905Z,95416.78
2023-03-29T19:07:03.572Z,95397.97
2023-03-29T19:09:32.699Z,95416.53
2023-03-29T19:12:00.680Z,95376.38
2023-03-29T19:14:29.231Z,95389.94
2023-03-29T19:16:57.020Z,95397.22
2023-03-29T19:19:26.316Z,95386.75
2023-03-29T19:21:59.904Z,95380.78
2023-03-29T19:24:28.379Z,95354.72
2023-03-29T19:26:57.722Z,95399.53
2023-03-29T19:29:29.621Z,95397.72
2023-03-29T19:31:57.383Z,95379.69
2023-03-29T19:34:25.154Z,95386.97
2023-03-29T19:36:53.438Z,95354.97
2023-03-29T19:39:21.690Z,95388.81
2023-03-29T19:42:10.392Z,95391.97
2023-03-29T19:47:22.894Z,95372.88
2023-03-29T19:49:50.610Z,95356.47
2023-03-29T19:52:18.248Z,95353.03
2023-03-29T19:54:46.045Z,95369.69
2023-03-29T19:57:13.930Z,95351.41
2023-03-29T19:59:42.942Z,95344.41
2023-03-29T20:02:11.665Z,95362.13
2023-03-29T20:04:40.886Z,95338.38
2023-03-29T20:07:09.631Z,95262.44
2023-03-29T20:10:05.012Z,95265.00
2023-03-29T20:12:42.049Z,95360.72
2023-03-29T20:15:14.869Z,95307.59
2023-03-29T20:17:45.221Z,95357.03
2023-03-29T20:20:17.756Z,95294.84
2023-03-29T20:22:47.728Z,95247.50
2023-03-29T20:25:29.677Z,95330.16
2023-03-29T20:28:06.370Z,95296.34
2023-03-29T20:30:35.289Z,95299.91
2023-03-29T20:33:06.037Z,95276.19
2023-03-29T20:35:38.419Z,95255.19
2023-03-29T20:44:19.457Z,95289.50
2023-03-29T20:47:02.376Z,95304.34
2023-03-29T20:49:30.511Z,95319.19
2023-03-29T20:52:04.478Z,95319.19
2023-03-29T20:54:33.143Z,95327.03
2023-03-29T20:57:01.307Z,95296.31
2023-03-29T20:59:29.684Z,95250.00
2023-03-29T21:01:58.278Z,95291.34
2023-03-29T21:04:26.634Z,95268.81
2023-03-29T21:06:54.402Z,95319.53
2023-03-29T21:09:25.451Z,95315.88
2023-03-29T21:11:53.536Z,95316.19
2023-03-29T21:14:29.539Z,95207.19
2023-03-29T21:17:16.311Z,95214.19
2023-03-29T21:19:57.663Z,95303.75
2023-03-29T21:22:35.730Z,95218.19
2023-03-29T21:25:05.036Z,95311.34
2023-03-29T21:30:10.064Z,95288.72
2023-03-29T21:32:38.358Z,95303.53
2023-03-29T21:35:10.541Z,95200.75
2023-03-29T21:37:45.577Z,95200.53
2023-03-29T21:40:17.123Z,95240.84
2023-03-29T21:42:49.737Z,95298.16
2023-03-29T21:45:21.260Z,95194.53
2023-03-29T21:48:02.100Z,95194.00
2023-03-29T21:50:31.977Z,95275.72
2023-03-29T21:53:03.968Z,95224.41
2023-03-29T21:55:36.655Z,95282.72
2023-03-29T21:58:04.817Z,95259.81
2023-03-29T22:00:33.054Z,95245.72
2023-03-29T22:03:00.702Z,95264.19
2023-03-29T22:05:28.292Z,95279.25
2023-03-29T22:07:58.551Z,95276.88
2023-03-29T22:10:26.460Z,95284.94
2023-03-29T22:12:56.116Z,95268.78
2023-03-29T22:15:24.313Z,95260.47
2023-03-29T22:17:53.232Z,95195.94
2023-03-29T22:20:22.196Z,95289.59
2023-03-29T22:22:51.730Z,95241.66
2023-03-29T22:25:20.795Z,95243.97
2023-03-29T22:27:49.444Z,95220.31
2023-03-29T22:30:19.030Z,95215.56
2023-03-29T22:32:46.730Z,95261.06
2023-03-29T22:35:14.361Z,95267.56
2023-03-29T22:37:42.855Z,95266.69
2023-03-29T22:40:12.304Z,95252.38
2023-03-29T22:47:58.202Z,95252.63
2023-03-29T22:50:25.803Z,95256.81
2023-03-29T22:52:55.735Z,95263.97
2023-03-29T22:55:23.393Z,95272.59
2023-03-29T22:57:51.101Z,95258.28
2023-03-29T23:00:19.649Z,95261.00
2023-03-29T23:02:47.328Z,95253.06
2023-03-29T23:05:16.647Z,95236.16
2023-03-29T23:07:44.333Z,95248.59
2023-03-29T23:10:12.725Z,95231.66
2023-03-29T23:12:42.789Z,95233.94
2023-03-29T23:15:12.110Z,95238.06
2023-03-29T23:17:39.573Z,95249.03
2023-03-29T23:20:08.707Z,95229.97
2023-03-29T23:22:39.628Z,95229.47
2023-03-29T23:25:08.004Z,95225.84
2023-03-29T23:27:35.580Z,95218.78
2023-03-29T23:30:03.556Z,95211.00
2023-03-29T23:32:31.146Z,95210.75
2023-03-29T23:34:59.893Z,95188.91
2023-03-29T23:42:48.252Z,95220.69
2023-03-29T23:45:18.139Z,95220.22
2023-03-29T23:47:46.596Z,95222.78
2023-03-29T23:50:15.367Z,95223.88
2023-03-29T23:52:42.910Z,95223.31
2023-03-29T23:55:14.361Z,95212.06
2023-03-29T23:57:41.975Z,95218.84
